| Station | Date | Time | Temp (°F) | RH (%) | Dew Pt (°F) | Wind Dir (°) | Wind Spd (mph) | Wind Gust (mph) | Solar Rad (W/m2) | Pressure (mb) | Daily Min Temp (°F) | Daily Max Temp (°F) | Daily Max Wind (mph) | Daily Rain (In) | Yest MinT (°F) | Yest MaxT (°F) | Yest MaxGst (mph) | Yest Precip (In) | MinBV Day (V) |
|---|---|---|---|---|---|---|---|---|---|---|---|---|---|---|---|---|---|---|---|
| MWA Office | 9/5/26 | 1800 | 84.5 4.7 | 27 2 | 47.3 2.4 | SW | 215 | 9.1 4.1 | 18.4 6.1 | 254 17 | 1,009.9 1.4 | 54.5 2.0 | 90.8 4.1 | 26.5 2.0 | 0.00 | 56.5 | 86.7 | 28.5 | 0.00 | 12.4 0.0 |
| MWA OPS | 9/5/26 | 1800 | 84.4 5.9 | 29 4 | 48.8 1.4 | SSW | 209 | 9.7 3.7 | 17.5 7.7 | 243 27 | 1,009.2 1.1 | 55.5 6.9 | 87.8 3.7 | 27.8 0.4 | 0.00 | 62.4 | 84.1 | 27.4 | 0.00 | 12.8 0.0 |
| LV-PS | 9/5/26 | 1800 | 87.5 0.5 | 30 14 | 51.9 16.0 | WSW | 249 | 9.4 2.3 | 15.3 3.3 | 115 124 | 1,007.3 3.0 | 55.0 3.0 | 92.5 0.9 | 27.8 7.4 | 0.00 | 57.9 | 91.6 | 20.4 | 0.00 | 12.7 0.0 |
| JV-PS | 9/5/26 | 1800 | 91.4 1.3 | 25 10 | 50.3 15.1 | E | 84 | 9.5 1.4 | 16.9 2.0 | 257 11 | 1,005.7 1.8 | 55.2 3.2 | 95.1 3.6 | 18.8 1.8 | 0.00 | 58.3 | 91.5 | 20.6 | 0.00 | 12.8 0.0 |
| BDVWA | 9/5/26 | 1800 | 83.4 2.0 | 31 14 | 49.4 16.8 | SSW | 193 | 11.4 3.9 | 19.7 8.1 | 131 82 | 1,007.5 2.1 | 59.6 1.1 | 88.0 2.3 | 36.0 8.1 | 0.00 | 60.7 | 85.7 | 27.8 | 0.00 | 12.8 0.0 |
| Newberry Springs | 9/5/26 | 1800 | 93.1 1.3 | 25 8 | 52.2 11.3 | SSW | 208 | 7.2 6.9 | 14.0 11.0 | 107 118 | 1,007.2 2.2 | 63.5 2.7 | 97.5 2.5 | 30.7 5.7 | 0.00 | 66.2 | 95.0 | 26.1 | 0.00 | 12.9 0.0 |
| Pinon Hills | 9/5/26 | 1800 | 74.5 1.4 | 40 10 | 48.6 8.9 | SSW | 206 | 16.6 3.4 | 34.2 5.5 | 218 16 | 1,008.7 1.6 | 53.9 4.4 | 79.2 1.8 | 37.3 5.7 | 0.00 | 56.9 | 81.0 | 39.7 | 0.00 | 12.8 0.0 |
| Helendale | 9/5/26 | 1800 | 87.6 2.5 | 31 6 | 53.3 8.1 | S | 182 | 13.8 0.6 | 24.1 3.3 | 87 109 | 1,007.5 1.0 | 51.5 3.4 | 94.1 3.1 | 25.4 1.5 | 0.00 | 54.9 | 91.0 | 24.3 | 0.00 | 12.7 0.0 |
| Lenwood | 9/5/26 | 1800 | 90.4 3.5 | 25 4 | 49.7 7.9 | S | 187 | 17.6 0.1 | 25.9 0.6 | 234 3 | 1,007.2 1.4 | 53.3 4.2 | 95.1 2.5 | 26.7 0.2 | 0.00 | 57.5 | 92.6 | 27.0 | 0.00 | 12.8 0.4 |
| Oak Hills | 9/5/26 | 1800 | 74.7 2.7 | 38 12 | 47.5 12.6 | SSE | 167 | 7.8 1.8 | 18.6 2.6 | 124 86 | 1,010.2 1.5 | 56.0 2.8 | 82.7 5.6 | 26.5 1.1 | 0.00 | 53.2 | 77.1 | 26.1 | 0.00 | 12.9 0.0 |
| Pipes Wash Canyon | 9/5/26 | 1800 | 79.5 1.3 | 32 15 | 46.8 17.0 | NW | 311 | 3.9 0.3 | 15.1 3.3 | 95 140 | 1,007.3 2.0 | 55.9 1.6 | 87.0 3.3 | 18.8 3.3 | 0.00 | 57.6 | 83.7 | 22.1 | 0.00 | 12.8 0.0 |
| Max | 93.1 | 40 | 53.3 | - | 17.6 | 34.2 | 257 | 1,010.2 | 63.5 | 97.5 | 37.3 | 0.00 | 66.2 | 95.0 | 39.7 | 0.00 | 12.9 | ||
| Avg | 84.6 | 30 | 49.6 | - | 10.5 | 20.0 | 170 | 1,008.0 | - | - | - | - | - | - | - | - | - | ||
| Min | 74.5 | 25 | 46.8 | - | 3.9 | 14.0 | 87 | 1,005.7 | 51.5 | 79.2 | 18.8 | 0.00 | 53.2 | 77.1 | 20.4 | 0.00 | 12.4 |
| Station | Date | Time | Latest Rain (In) | Daily Rain (In) | Yest Precip (In) | Month Precip (In) | Season Precip (In) | Daily ETo (in) | Yest ETo (In) | 7 Day ETo (in) |
|---|---|---|---|---|---|---|---|---|---|---|
| MWA Office | 9/5/26 | 1800 | 0.00 | 0.00 | 0.00 | 0.00 | 0.00 | 0.220 | 0.28 | 1.95 |
| MWA OPS | 9/5/26 | 1800 | 0.00 | 0.00 | 0.00 | 0.00 | 0.00 | 0.253 | 0.30 | 2.13 |
| LV-PS | 9/5/26 | 1800 | 0.00 | 0.00 | 0.00 | 0.00 | 0.34 | 0.228 | 0.24 | 1.96 |
| JV-PS | 9/5/26 | 1800 | 0.00 | 0.00 | 0.00 | 0.00 | 0.06 | 0.217 | 0.25 | 1.94 |
| BDVWA | 9/5/26 | 1800 | 0.00 | 0.00 | 0.00 | 0.00 | 0.00 | 0.245 | 0.29 | 2.05 |
| Newberry Springs | 9/5/26 | 1800 | 0.00 | 0.00 | 0.00 | 0.00 | 1.97 | 0.212 | 0.29 | 2.26 |
| Pinon Hills | 9/5/26 | 1800 | 0.00 | 0.00 | 0.00 | 0.00 | 0.19 | 0.211 | 0.23 | 1.69 |
| Helendale | 9/5/26 | 1800 | 0.00 | 0.00 | 0.00 | 0.00 | 0.00 | 0.209 | 0.25 | 2.01 |
| Lenwood | 9/5/26 | 1800 | 0.00 | 0.00 | 0.00 | 0.00 | 0.09 | 0.223 | 0.29 | 2.14 |
| Oak Hills | 9/5/26 | 1800 | 0.00 | 0.00 | 0.00 | 0.00 | 0.00 | 0.228 | 0.23 | 1.70 |
| Pipes Wash Canyon | 9/5/26 | 1800 | 0.00 | 0.00 | 0.00 | 0.00 | 0.00 | 0.216 | 0.23 | 1.65 |
| Max | 0.00 | 0.00 | 0.00 | 0.00 | 1.97 | 0.253 | 0.30 | 2.26 | ||
| Avg | 0.00 | - | - | - | - | - | - | - | ||
| Min | 0.00 | 0.00 | 0.00 | 0.00 | 0.00 | 0.209 | 0.23 | 1.65 |